sensor_id;sensor_type;location;lat;lon;timestamp;pressure;altitude;pressure_sealevel;temperature;humidity
34566;BME280;20803;42.676;26.348;2024-02-26T00:01:38;98448.53;;;13.77;91.66
34566;BME280;20803;42.676;26.348;2024-02-26T00:04:04;98453.53;;;13.70;91.26
34566;BME280;20803;42.676;26.348;2024-02-26T00:06:30;98451.91;;;13.56;91.79
34566;BME280;20803;42.676;26.348;2024-02-26T00:08:55;98453.41;;;13.45;92.64
34566;BME280;20803;42.676;26.348;2024-02-26T00:11:21;98448.94;;;13.31;93.59
34566;BME280;20803;42.676;26.348;2024-02-26T00:13:46;98452.63;;;13.28;94.62
34566;BME280;20803;42.676;26.348;2024-02-26T00:16:12;98443.38;;;13.31;94.56
34566;BME280;20803;42.676;26.348;2024-02-26T00:18:38;98456.97;;;13.13;95.01
34566;BME280;20803;42.676;26.348;2024-02-26T00:21:03;98447.31;;;13.17;96.02
34566;BME280;20803;42.676;26.348;2024-02-26T00:23:29;98442.69;;;13.27;95.25
34566;BME280;20803;42.676;26.348;2024-02-26T00:25:54;98433.53;;;13.26;94.62
34566;BME280;20803;42.676;26.348;2024-02-26T00:28:21;98440.50;;;13.18;94.87
34566;BME280;20803;42.676;26.348;2024-02-26T00:30:46;98445.41;;;13.14;95.17
34566;BME280;20803;42.676;26.348;2024-02-26T00:33:14;98439.03;;;13.14;94.73
34566;BME280;20803;42.676;26.348;2024-02-26T00:35:39;98430.91;;;13.03;95.40
34566;BME280;20803;42.676;26.348;2024-02-26T00:38:05;98428.91;;;13.04;95.22
34566;BME280;20803;42.676;26.348;2024-02-26T00:40:30;98428.97;;;13.00;95.57
34566;BME280;20803;42.676;26.348;2024-02-26T00:42:56;98416.34;;;12.95;96.02
34566;BME280;20803;42.676;26.348;2024-02-26T00:45:21;98417.63;;;13.07;95.66
34566;BME280;20803;42.676;26.348;2024-02-26T00:47:47;98414.28;;;13.16;94.61
34566;BME280;20803;42.676;26.348;2024-02-26T00:50:14;98420.91;;;13.22;94.61
34566;BME280;20803;42.676;26.348;2024-02-26T00:52:40;98415.56;;;13.27;93.95
34566;BME280;20803;42.676;26.348;2024-02-26T00:55:06;98406.78;;;13.29;93.49
34566;BME280;20803;42.676;26.348;2024-02-26T00:57:32;98397.34;;;13.23;93.57
34566;BME280;20803;42.676;26.348;2024-02-26T00:59:57;98409.19;;;13.27;92.85
34566;BME280;20803;42.676;26.348;2024-02-26T01:02:24;98396.66;;;13.19;94.09
34566;BME280;20803;42.676;26.348;2024-02-26T01:04:50;98399.44;;;13.19;94.38
34566;BME280;20803;42.676;26.348;2024-02-26T01:07:15;98389.84;;;13.20;94.16
34566;BME280;20803;42.676;26.348;2024-02-26T01:09:42;98384.00;;;13.14;94.35
34566;BME280;20803;42.676;26.348;2024-02-26T01:12:08;98383.84;;;13.05;95.30
34566;BME280;20803;42.676;26.348;2024-02-26T01:14:33;98378.59;;;13.07;95.30
34566;BME280;20803;42.676;26.348;2024-02-26T01:16:59;98370.13;;;13.11;95.23
34566;BME280;20803;42.676;26.348;2024-02-26T01:19:24;98369.22;;;13.17;95.19
34566;BME280;20803;42.676;26.348;2024-02-26T01:21:50;98365.22;;;13.31;93.36
34566;BME280;20803;42.676;26.348;2024-02-26T01:24:15;98368.09;;;13.44;92.42
34566;BME280;20803;42.676;26.348;2024-02-26T01:26:42;98368.09;;;13.44;92.10
34566;BME280;20803;42.676;26.348;2024-02-26T01:29:07;98371.06;;;13.36;92.72
34566;BME280;20803;42.676;26.348;2024-02-26T01:31:32;98373.06;;;13.36;93.05
34566;BME280;20803;42.676;26.348;2024-02-26T01:33:58;98367.94;;;13.34;92.91
34566;BME280;20803;42.676;26.348;2024-02-26T01:36:24;98368.75;;;13.19;93.62
34566;BME280;20803;42.676;26.348;2024-02-26T01:38:49;98368.88;;;13.12;94.41
34566;BME280;20803;42.676;26.348;2024-02-26T01:41:15;98372.50;;;13.12;94.09
34566;BME280;20803;42.676;26.348;2024-02-26T01:43:40;98370.94;;;13.27;93.53
34566;BME280;20803;42.676;26.348;2024-02-26T01:46:08;98365.22;;;13.31;92.88
34566;BME280;20803;42.676;26.348;2024-02-26T01:48:40;98360.00;;;13.33;92.92
34566;BME280;20803;42.676;26.348;2024-02-26T01:51:05;98359.69;;;13.15;94.40
34566;BME280;20803;42.676;26.348;2024-02-26T01:53:31;98363.06;;;13.06;95.47
34566;BME280;20803;42.676;26.348;2024-02-26T01:55:57;98361.22;;;12.99;96.34
34566;BME280;20803;42.676;26.348;2024-02-26T01:58:23;98359.59;;;13.02;96.45
34566;BME280;20803;42.676;26.348;2024-02-26T02:00:49;98362.84;;;13.17;95.28
34566;BME280;20803;42.676;26.348;2024-02-26T02:03:15;98367.44;;;13.23;94.88
34566;BME280;20803;42.676;26.348;2024-02-26T02:05:41;98357.09;;;13.36;94.12
34566;BME280;20803;42.676;26.348;2024-02-26T02:08:11;98362.25;;;13.38;93.88
34566;BME280;20803;42.676;26.348;2024-02-26T02:10:38;98365.16;;;13.34;94.52
34566;BME280;20803;42.676;26.348;2024-02-26T02:13:04;98359.56;;;13.34;93.51
34566;BME280;20803;42.676;26.348;2024-02-26T02:15:29;98360.25;;;13.38;93.37
34566;BME280;20803;42.676;26.348;2024-02-26T02:17:55;98368.00;;;13.47;92.92
34566;BME280;20803;42.676;26.348;2024-02-26T02:20:34;98360.66;;;13.53;92.62
34566;BME280;20803;42.676;26.348;2024-02-26T02:23:00;98364.66;;;13.52;92.98
34566;BME280;20803;42.676;26.348;2024-02-26T02:25:26;98362.91;;;13.58;92.08
34566;BME280;20803;42.676;26.348;2024-02-26T02:27:53;98360.19;;;13.55;92.03
34566;BME280;20803;42.676;26.348;2024-02-26T02:30:21;98358.19;;;13.55;91.67
34566;BME280;20803;42.676;26.348;2024-02-26T02:32:46;98358.91;;;13.59;90.97
34566;BME280;20803;42.676;26.348;2024-02-26T02:35:12;98352.41;;;13.62;90.40
34566;BME280;20803;42.676;26.348;2024-02-26T02:37:37;98354.41;;;13.62;90.54
34566;BME280;20803;42.676;26.348;2024-02-26T02:40:03;98354.66;;;13.67;90.24
34566;BME280;20803;42.676;26.348;2024-02-26T02:42:30;98354.13;;;13.72;89.36
34566;BME280;20803;42.676;26.348;2024-02-26T02:44:56;98349.22;;;13.76;88.83
34566;BME280;20803;42.676;26.348;2024-02-26T02:47:22;98347.47;;;13.82;88.32
34566;BME280;20803;42.676;26.348;2024-02-26T02:49:47;98349.91;;;13.80;88.64
34566;BME280;20803;42.676;26.348;2024-02-26T02:52:13;98345.09;;;13.81;88.68
34566;BME280;20803;42.676;26.348;2024-02-26T02:54:38;98345.44;;;13.83;88.35
34566;BME280;20803;42.676;26.348;2024-02-26T02:57:07;98350.69;;;13.81;88.89
34566;BME280;20803;42.676;26.348;2024-02-26T02:59:32;98345.44;;;13.83;88.94
34566;BME280;20803;42.676;26.348;2024-02-26T03:01:58;98342.75;;;13.79;89.63
34566;BME280;20803;42.676;26.348;2024-02-26T03:04:23;98350.72;;;13.52;91.41
34566;BME280;20803;42.676;26.348;2024-02-26T03:06:49;98356.97;;;13.11;95.61
34566;BME280;20803;42.676;26.348;2024-02-26T03:09:14;98359.50;;;12.89;97.02
34566;BME280;20803;42.676;26.348;2024-02-26T03:11:40;98368.31;;;13.04;96.67
34566;BME280;20803;42.676;26.348;2024-02-26T03:14:05;98364.47;;;12.82;96.70
34566;BME280;20803;42.676;26.348;2024-02-26T03:16:31;98361.69;;;12.82;97.17
34566;BME280;20803;42.676;26.348;2024-02-26T03:18:57;98365.78;;;12.93;97.19
34566;BME280;20803;42.676;26.348;2024-02-26T03:21:25;98362.28;;;13.06;97.05
34566;BME280;20803;42.676;26.348;2024-02-26T03:23:50;98366.56;;;13.10;96.30
34566;BME280;20803;42.676;26.348;2024-02-26T03:26:16;98360.13;;;12.97;96.50
34566;BME280;20803;42.676;26.348;2024-02-26T03:28:41;98362.72;;;13.04;96.46
34566;BME280;20803;42.676;26.348;2024-02-26T03:31:07;98355.06;;;13.08;95.74
34566;BME280;20803;42.676;26.348;2024-02-26T03:33:32;98364.19;;;13.09;96.16
34566;BME280;20803;42.676;26.348;2024-02-26T03:35:58;98356.25;;;13.07;96.45
34566;BME280;20803;42.676;26.348;2024-02-26T03:38:23;98363.41;;;13.08;96.89
34566;BME280;20803;42.676;26.348;2024-02-26T03:40:49;98359.69;;;13.15;96.52
34566;BME280;20803;42.676;26.348;2024-02-26T03:43:14;98354.00;;;13.18;96.38
34566;BME280;20803;42.676;26.348;2024-02-26T03:45:40;98352.41;;;13.33;95.23
34566;BME280;20803;42.676;26.348;2024-02-26T03:48:05;98346.72;;;13.37;94.93
34566;BME280;20803;42.676;26.348;2024-02-26T03:50:31;98347.94;;;13.36;94.63
34566;BME280;20803;42.676;26.348;2024-02-26T03:52:57;98337.78;;;13.29;94.80
34566;BME280;20803;42.676;26.348;2024-02-26T03:55:23;98344.09;;;13.17;95.69
34566;BME280;20803;42.676;26.348;2024-02-26T03:57:53;98328.72;;;13.09;96.24
34566;BME280;20803;42.676;26.348;2024-02-26T04:00:19;98346.56;;;13.12;96.47
34566;BME280;20803;42.676;26.348;2024-02-26T04:02:44;98346.69;;;13.08;96.93
34566;BME280;20803;42.676;26.348;2024-02-26T04:05:10;98337.63;;;13.04;97.52
34566;BME280;20803;42.676;26.348;2024-02-26T04:07:36;98342.84;;;13.02;97.36
34566;BME280;20803;42.676;26.348;2024-02-26T04:10:02;98343.09;;;13.08;97.06
34566;BME280;20803;42.676;26.348;2024-02-26T04:12:30;98335.81;;;13.14;96.08
34566;BME280;20803;42.676;26.348;2024-02-26T04:14:56;98337.16;;;13.06;96.17
34566;BME280;20803;42.676;26.348;2024-02-26T04:17:21;98337.44;;;12.95;96.83
34566;BME280;20803;42.676;26.348;2024-02-26T04:19:47;98327.63;;;12.90;97.54
34566;BME280;20803;42.676;26.348;2024-02-26T04:22:12;98328.59;;;12.84;98.12
34566;BME280;20803;42.676;26.348;2024-02-26T04:24:38;98334.50;;;12.86;98.19
34566;BME280;20803;42.676;26.348;2024-02-26T04:27:03;98320.31;;;12.80;98.91
34566;BME280;20803;42.676;26.348;2024-02-26T04:29:29;98335.00;;;12.81;98.43
34566;BME280;20803;42.676;26.348;2024-02-26T04:31:55;98328.31;;;12.78;98.06
34566;BME280;20803;42.676;26.348;2024-02-26T04:34:20;98323.34;;;12.70;98.99
34566;BME280;20803;42.676;26.348;2024-02-26T04:36:46;98330.78;;;12.60;100.00
34566;BME280;20803;42.676;26.348;2024-02-26T04:39:13;98321.19;;;12.61;99.90
34566;BME280;20803;42.676;26.348;2024-02-26T04:41:38;98320.84;;;12.59;100.00
34566;BME280;20803;42.676;26.348;2024-02-26T04:44:04;98322.22;;;12.67;99.59
34566;BME280;20803;42.676;26.348;2024-02-26T04:46:29;98314.31;;;12.66;99.27
34566;BME280;20803;42.676;26.348;2024-02-26T04:48:55;98310.03;;;12.61;99.64
34566;BME280;20803;42.676;26.348;2024-02-26T04:51:20;98319.09;;;12.65;99.03
34566;BME280;20803;42.676;26.348;2024-02-26T04:53:46;98311.25;;;12.76;98.18
34566;BME280;20803;42.676;26.348;2024-02-26T04:56:11;98318.50;;;12.74;97.99
34566;BME280;20803;42.676;26.348;2024-02-26T04:58:37;98311.75;;;12.87;96.74
34566;BME280;20803;42.676;26.348;2024-02-26T05:01:03;98314.28;;;12.98;94.83
34566;BME280;20803;42.676;26.348;2024-02-26T05:03:29;98315.31;;;13.04;94.05
34566;BME280;20803;42.676;26.348;2024-02-26T05:05:54;98323.22;;;13.06;93.22
34566;BME280;20803;42.676;26.348;2024-02-26T05:08:22;98319.84;;;12.98;93.45
34566;BME280;20803;42.676;26.348;2024-02-26T05:10:48;98319.59;;;12.92;93.38
34566;BME280;20803;42.676;26.348;2024-02-26T05:13:13;98321.50;;;12.95;93.31
34566;BME280;20803;42.676;26.348;2024-02-26T05:15:40;98325.09;;;12.96;92.74
34566;BME280;20803;42.676;26.348;2024-02-26T05:18:06;98328.13;;;13.01;92.70
34566;BME280;20803;42.676;26.348;2024-02-26T05:20:33;98326.56;;;13.17;92.03
34566;BME280;20803;42.676;26.348;2024-02-26T05:23:00;98329.06;;;13.27;90.85
34566;BME280;20803;42.676;26.348;2024-02-26T05:25:26;98342.91;;;13.31;90.19
34566;BME280;20803;42.676;26.348;2024-02-26T05:27:51;98346.41;;;13.35;90.72
34566;BME280;20803;42.676;26.348;2024-02-26T05:30:17;98345.09;;;13.39;87.53
34566;BME280;20803;42.676;26.348;2024-02-26T05:32:42;98355.41;;;13.55;86.92
34566;BME280;20803;42.676;26.348;2024-02-26T05:35:08;98358.25;;;13.68;85.90
34566;BME280;20803;42.676;26.348;2024-02-26T05:37:34;98357.44;;;13.67;82.90
34566;BME280;20803;42.676;26.348;2024-02-26T05:39:59;98361.28;;;13.73;82.96
34566;BME280;20803;42.676;26.348;2024-02-26T05:42:24;98361.66;;;13.88;82.48
34566;BME280;20803;42.676;26.348;2024-02-26T05:44:50;98360.91;;;14.00;82.24
34566;BME280;20803;42.676;26.348;2024-02-26T05:47:16;98384.59;;;13.96;81.44
34566;BME280;20803;42.676;26.348;2024-02-26T05:49:42;98396.47;;;13.26;84.83
34566;BME280;20803;42.676;26.348;2024-02-26T05:52:08;98390.16;;;12.57;90.27
34566;BME280;20803;42.676;26.348;2024-02-26T05:54:33;98393.63;;;12.09;94.38
34566;BME280;20803;42.676;26.348;2024-02-26T05:56:59;98403.28;;;12.04;95.52
34566;BME280;20803;42.676;26.348;2024-02-26T05:59:25;98409.50;;;11.92;95.86
34566;BME280;20803;42.676;26.348;2024-02-26T06:01:50;98410.13;;;11.80;97.09
34566;BME280;20803;42.676;26.348;2024-02-26T06:04:16;98409.44;;;11.72;98.40
34566;BME280;20803;42.676;26.348;2024-02-26T06:06:44;98414.63;;;11.74;98.88
34566;BME280;20803;42.676;26.348;2024-02-26T06:09:13;98421.44;;;11.69;99.75
34566;BME280;20803;42.676;26.348;2024-02-26T06:11:38;98415.16;;;11.65;100.00
34566;BME280;20803;42.676;26.348;2024-02-26T06:14:04;98418.84;;;11.82;100.00
34566;BME280;20803;42.676;26.348;2024-02-26T06:16:30;98418.53;;;11.96;98.93
34566;BME280;20803;42.676;26.348;2024-02-26T06:18:56;98419.91;;;12.08;98.36
34566;BME280;20803;42.676;26.348;2024-02-26T06:21:22;98418.41;;;12.23;97.64
34566;BME280;20803;42.676;26.348;2024-02-26T06:23:47;98416.25;;;12.31;96.97
34566;BME280;20803;42.676;26.348;2024-02-26T06:26:13;98416.84;;;12.38;97.43
34566;BME280;20803;42.676;26.348;2024-02-26T06:28:38;98409.06;;;12.49;98.23
34566;BME280;20803;42.676;26.348;2024-02-26T06:31:06;98411.97;;;12.62;97.74
34566;BME280;20803;42.676;26.348;2024-02-26T06:33:31;98417.44;;;12.66;96.80
34566;BME280;20803;42.676;26.348;2024-02-26T06:35:57;98417.72;;;12.71;96.17
34566;BME280;20803;42.676;26.348;2024-02-26T06:38:23;98405.88;;;12.83;95.88
34566;BME280;20803;42.676;26.348;2024-02-26T06:40:48;98413.38;;;12.86;95.07
34566;BME280;20803;42.676;26.348;2024-02-26T06:43:14;98413.38;;;12.86;94.96
34566;BME280;20803;42.676;26.348;2024-02-26T06:45:39;98422.84;;;12.73;96.79
34566;BME280;20803;42.676;26.348;2024-02-26T06:48:05;98426.66;;;12.27;100.00
34566;BME280;20803;42.676;26.348;2024-02-26T06:50:31;98422.34;;;12.06;100.00
34566;BME280;20803;42.676;26.348;2024-02-26T06:52:56;98423.69;;;12.17;100.00
34566;BME280;20803;42.676;26.348;2024-02-26T06:55:22;98427.53;;;12.24;100.00
34566;BME280;20803;42.676;26.348;2024-02-26T06:57:47;98432.03;;;12.37;100.00
34566;BME280;20803;42.676;26.348;2024-02-26T07:00:13;98425.78;;;12.49;100.00
34566;BME280;20803;42.676;26.348;2024-02-26T07:02:42;98429.81;;;12.65;100.00
34566;BME280;20803;42.676;26.348;2024-02-26T07:05:08;98429.91;;;12.77;98.15
34566;BME280;20803;42.676;26.348;2024-02-26T07:07:34;98425.50;;;12.96;97.48
34566;BME280;20803;42.676;26.348;2024-02-26T07:09:59;98425.50;;;13.12;95.73
34566;BME280;20803;42.676;26.348;2024-02-26T07:12:29;98416.44;;;13.24;93.86
34566;BME280;20803;42.676;26.348;2024-02-26T07:14:54;98420.88;;;13.38;92.69
34566;BME280;20803;42.676;26.348;2024-02-26T07:17:20;98421.97;;;13.57;91.09
34566;BME280;20803;42.676;26.348;2024-02-26T07:19:45;98428.47;;;13.66;88.89
34566;BME280;20803;42.676;26.348;2024-02-26T07:22:11;98421.88;;;13.60;88.50
34566;BME280;20803;42.676;26.348;2024-02-26T07:24:36;98416.81;;;13.55;88.47
34566;BME280;20803;42.676;26.348;2024-02-26T07:27:02;98413.25;;;13.55;89.18
34566;BME280;20803;42.676;26.348;2024-02-26T07:29:27;98417.28;;;13.54;89.34
34566;BME280;20803;42.676;26.348;2024-02-26T07:31:53;98412.66;;;13.47;90.30
34566;BME280;20803;42.676;26.348;2024-02-26T07:34:19;98408.63;;;13.48;90.24
34566;BME280;20803;42.676;26.348;2024-02-26T07:36:44;98412.56;;;13.51;89.91
34566;BME280;20803;42.676;26.348;2024-02-26T07:39:10;98412.44;;;13.54;91.41
34566;BME280;20803;42.676;26.348;2024-02-26T07:41:35;98416.25;;;13.48;93.12
34566;BME280;20803;42.676;26.348;2024-02-26T07:44:01;98421.28;;;13.53;93.79
34566;BME280;20803;42.676;26.348;2024-02-26T07:46:26;98428.53;;;13.50;93.68
34566;BME280;20803;42.676;26.348;2024-02-26T07:48:52;98436.22;;;13.46;92.08
34566;BME280;20803;42.676;26.348;2024-02-26T07:51:17;98427.13;;;13.42;92.28
34566;BME280;20803;42.676;26.348;2024-02-26T07:53:43;98420.06;;;13.54;93.58
34566;BME280;20803;42.676;26.348;2024-02-26T07:56:11;98424.63;;;13.48;93.00
34566;BME280;20803;42.676;26.348;2024-02-26T07:58:37;98427.06;;;13.46;92.95
34566;BME280;20803;42.676;26.348;2024-02-26T08:01:02;98421.97;;;13.57;91.86
34566;BME280;20803;42.676;26.348;2024-02-26T08:03:28;98431.03;;;13.61;90.10
34566;BME280;20803;42.676;26.348;2024-02-26T08:05:53;98431.63;;;13.68;89.81
34566;BME280;20803;42.676;26.348;2024-02-26T08:08:20;98431.56;;;13.85;89.43
34566;BME280;20803;42.676;26.348;2024-02-26T08:10:45;98429.19;;;13.99;88.42
34566;BME280;20803;42.676;26.348;2024-02-26T08:13:11;98427.19;;;14.12;87.78
34566;BME280;20803;42.676;26.348;2024-02-26T08:15:36;98427.22;;;14.25;87.71
34566;BME280;20803;42.676;26.348;2024-02-26T08:18:05;98430.25;;;14.31;87.08
34566;BME280;20803;42.676;26.348;2024-02-26T08:20:31;98426.53;;;14.21;87.60
34566;BME280;20803;42.676;26.348;2024-02-26T08:22:57;98420.47;;;14.10;90.33
34566;BME280;20803;42.676;26.348;2024-02-26T08:25:23;98420.03;;;14.11;90.80
34566;BME280;20803;42.676;26.348;2024-02-26T08:27:49;98412.66;;;14.05;91.96
34566;BME280;20803;42.676;26.348;2024-02-26T08:30:15;98418.03;;;14.12;91.50
34566;BME280;20803;42.676;26.348;2024-02-26T08:32:48;98411.22;;;14.13;90.60
34566;BME280;20803;42.676;26.348;2024-02-26T08:35:14;98409.88;;;14.17;91.89
34566;BME280;20803;42.676;26.348;2024-02-26T08:37:40;98410.03;;;14.27;90.54
34566;BME280;20803;42.676;26.348;2024-02-26T08:40:06;98404.56;;;14.36;91.22
34566;BME280;20803;42.676;26.348;2024-02-26T08:42:32;98401.25;;;14.53;90.66
34566;BME280;20803;42.676;26.348;2024-02-26T08:44:57;98409.28;;;14.64;90.81
34566;BME280;20803;42.676;26.348;2024-02-26T08:47:25;98404.59;;;14.74;89.03
34566;BME280;20803;42.676;26.348;2024-02-26T08:49:51;98406.63;;;14.86;88.39
34566;BME280;20803;42.676;26.348;2024-02-26T08:52:17;98397.78;;;15.00;88.80
34566;BME280;20803;42.676;26.348;2024-02-26T08:54:43;98403.78;;;15.11;87.32
34566;BME280;20803;42.676;26.348;2024-02-26T08:57:08;98409.03;;;15.22;86.24
34566;BME280;20803;42.676;26.348;2024-02-26T08:59:33;98406.41;;;15.40;84.84
34566;BME280;20803;42.676;26.348;2024-02-26T09:01:59;98405.56;;;15.65;81.77
34566;BME280;20803;42.676;26.348;2024-02-26T09:04:25;98401.50;;;15.78;79.36
34566;BME280;20803;42.676;26.348;2024-02-26T09:06:52;98408.97;;;15.81;79.21
34566;BME280;20803;42.676;26.348;2024-02-26T09:09:18;98402.72;;;15.99;78.64
34566;BME280;20803;42.676;26.348;2024-02-26T09:11:43;98406.09;;;15.94;79.90
34566;BME280;20803;42.676;26.348;2024-02-26T09:14:09;98402.97;;;15.92;77.35
34566;BME280;20803;42.676;26.348;2024-02-26T09:16:34;98401.44;;;15.91;78.67
34566;BME280;20803;42.676;26.348;2024-02-26T09:19:00;98401.06;;;16.11;78.64
34566;BME280;20803;42.676;26.348;2024-02-26T09:21:25;98400.13;;;16.36;78.81
34566;BME280;20803;42.676;26.348;2024-02-26T09:23:51;98396.38;;;16.30;79.49
34566;BME280;20803;42.676;26.348;2024-02-26T09:26:18;98399.69;;;16.37;78.58
34566;BME280;20803;42.676;26.348;2024-02-26T09:28:44;98400.38;;;16.50;74.88
34566;BME280;20803;42.676;26.348;2024-02-26T09:31:09;98396.44;;;16.39;74.65
34566;BME280;20803;42.676;26.348;2024-02-26T09:33:35;98397.66;;;16.38;77.49
34566;BME280;20803;42.676;26.348;2024-02-26T09:36:01;98391.50;;;16.21;79.15
34566;BME280;20803;42.676;26.348;2024-02-26T09:38:27;98388.38;;;16.19;79.00
34566;BME280;20803;42.676;26.348;2024-02-26T09:40:53;98388.19;;;16.13;78.54
34566;BME280;20803;42.676;26.348;2024-02-26T09:43:21;98389.06;;;16.10;77.77
34566;BME280;20803;42.676;26.348;2024-02-26T09:45:50;98389.69;;;16.05;78.44
34566;BME280;20803;42.676;26.348;2024-02-26T09:48:17;98387.03;;;16.02;80.14
34566;BME280;20803;42.676;26.348;2024-02-26T09:50:43;98381.16;;;15.65;83.44
34566;BME280;20803;42.676;26.348;2024-02-26T09:53:11;98371.03;;;15.68;84.08
34566;BME280;20803;42.676;26.348;2024-02-26T09:55:37;98373.59;;;15.75;84.10
34566;BME280;20803;42.676;26.348;2024-02-26T09:58:05;98365.78;;;15.70;83.52
34566;BME280;20803;42.676;26.348;2024-02-26T10:00:31;98354.44;;;15.73;82.21
34566;BME280;20803;42.676;26.348;2024-02-26T10:03:04;98353.25;;;15.83;82.58
34566;BME280;20803;42.676;26.348;2024-02-26T10:05:31;98346.03;;;15.95;82.61
34566;BME280;20803;42.676;26.348;2024-02-26T10:07:57;98342.03;;;16.05;80.48
34566;BME280;20803;42.676;26.348;2024-02-26T10:10:25;98345.69;;;16.15;79.59
34566;BME280;20803;42.676;26.348;2024-02-26T10:12:52;98342.47;;;16.35;77.69
34566;BME280;20803;42.676;26.348;2024-02-26T10:15:18;98337.44;;;16.51;76.65
34566;BME280;20803;42.676;26.348;2024-02-26T10:17:43;98326.50;;;16.53;78.03
34566;BME280;20803;42.676;26.348;2024-02-26T10:20:18;98323.88;;;16.50;79.50
34566;BME280;20803;42.676;26.348;2024-02-26T10:22:47;98326.44;;;16.66;79.02
34566;BME280;20803;42.676;26.348;2024-02-26T10:25:13;98317.13;;;16.78;77.00
34566;BME280;20803;42.676;26.348;2024-02-26T10:27:42;98324.03;;;16.95;74.38
34566;BME280;20803;42.676;26.348;2024-02-26T10:30:19;98324.34;;;17.16;71.63
34566;BME280;20803;42.676;26.348;2024-02-26T10:32:45;98324.53;;;17.12;74.91
34566;BME280;20803;42.676;26.348;2024-02-26T10:35:12;98324.69;;;17.36;71.82
34566;BME280;20803;42.676;26.348;2024-02-26T10:37:39;98322.22;;;17.56;67.75
34566;BME280;20803;42.676;26.348;2024-02-26T10:40:06;98320.50;;;17.50;70.19
34566;BME280;20803;42.676;26.348;2024-02-26T10:42:31;98318.16;;;17.48;70.95
34566;BME280;20803;42.676;26.348;2024-02-26T10:44:58;98325.16;;;17.53;68.27
34566;BME280;20803;42.676;26.348;2024-02-26T10:47:24;98325.03;;;17.74;66.21
34566;BME280;20803;42.676;26.348;2024-02-26T10:49:50;98334.69;;;17.92;65.75
34566;BME280;20803;42.676;26.348;2024-02-26T10:52:19;98314.13;;;18.18;64.14
34566;BME280;20803;42.676;26.348;2024-02-26T10:54:47;98316.88;;;18.37;63.12
34566;BME280;20803;42.676;26.348;2024-02-26T10:57:13;98315.63;;;18.47;62.64
34566;BME280;20803;42.676;26.348;2024-02-26T10:59:42;98317.66;;;18.46;60.72
34566;BME280;20803;42.676;26.348;2024-02-26T11:02:09;98313.69;;;18.62;60.64
34566;BME280;20803;42.676;26.348;2024-02-26T11:04:37;98314.38;;;18.81;60.00
34566;BME280;20803;42.676;26.348;2024-02-26T11:07:04;98321.03;;;18.92;60.22
34566;BME280;20803;42.676;26.348;2024-02-26T11:09:31;98319.34;;;19.10;57.57
34566;BME280;20803;42.676;26.348;2024-02-26T11:11:58;98319.19;;;19.13;57.61
34566;BME280;20803;42.676;26.348;2024-02-26T11:14:25;98319.97;;;19.14;58.36
34566;BME280;20803;42.676;26.348;2024-02-26T11:16:51;98308.56;;;19.32;56.90
34566;BME280;20803;42.676;26.348;2024-02-26T11:19:17;98301.06;;;19.29;57.58
34566;BME280;20803;42.676;26.348;2024-02-26T11:21:43;98301.94;;;19.35;58.31
34566;BME280;20803;42.676;26.348;2024-02-26T11:24:13;98296.19;;;19.53;56.96
34566;BME280;20803;42.676;26.348;2024-02-26T11:26:43;98294.44;;;19.70;55.89
34566;BME280;20803;42.676;26.348;2024-02-26T11:29:15;98289.63;;;19.85;51.98
34566;BME280;20803;42.676;26.348;2024-02-26T11:31:42;98287.97;;;19.94;50.69
34566;BME280;20803;42.676;26.348;2024-02-26T11:34:09;98279.00;;;19.95;48.53
34566;BME280;20803;42.676;26.348;2024-02-26T11:36:36;98271.53;;;19.77;47.59
34566;BME280;20803;42.676;26.348;2024-02-26T11:39:04;98274.72;;;19.56;48.03
34566;BME280;20803;42.676;26.348;2024-02-26T11:41:30;98278.56;;;19.43;48.49
34566;BME280;20803;42.676;26.348;2024-02-26T11:44:01;98282.88;;;19.30;49.46
34566;BME280;20803;42.676;26.348;2024-02-26T11:46:31;98276.50;;;19.05;49.94
34566;BME280;20803;42.676;26.348;2024-02-26T11:49:02;98280.69;;;18.86;48.65
34566;BME280;20803;42.676;26.348;2024-02-26T11:51:32;98288.78;;;18.70;49.13
34566;BME280;20803;42.676;26.348;2024-02-26T11:53:58;98278.84;;;18.50;51.47
34566;BME280;20803;42.676;26.348;2024-02-26T11:56:24;98278.41;;;18.43;53.71
34566;BME280;20803;42.676;26.348;2024-02-26T11:59:03;98277.22;;;18.25;56.00
34566;BME280;20803;42.676;26.348;2024-02-26T12:01:50;98276.91;;;18.33;57.31
34566;BME280;20803;42.676;26.348;2024-02-26T12:04:25;98279.91;;;18.29;55.38
34566;BME280;20803;42.676;26.348;2024-02-26T12:07:00;98272.38;;;18.35;53.62
34566;BME280;20803;42.676;26.348;2024-02-26T12:09:37;98271.41;;;18.38;53.46
34566;BME280;20803;42.676;26.348;2024-02-26T12:12:07;98264.06;;;18.41;53.92
34566;BME280;20803;42.676;26.348;2024-02-26T12:14:52;98272.63;;;18.46;55.18
34566;BME280;20803;42.676;26.348;2024-02-26T12:17:25;98272.44;;;18.50;56.48
34566;BME280;20803;42.676;26.348;2024-02-26T12:19:52;98275.25;;;18.50;58.04
34566;BME280;20803;42.676;26.348;2024-02-26T12:22:19;98281.34;;;18.57;59.64
34566;BME280;20803;42.676;26.348;2024-02-26T12:24:45;98263.38;;;18.79;58.80
34566;BME280;20803;42.676;26.348;2024-02-26T12:27:12;98265.19;;;18.91;59.06
34566;BME280;20803;42.676;26.348;2024-02-26T12:29:38;98268.38;;;19.08;58.68
34566;BME280;20803;42.676;26.348;2024-02-26T12:32:04;98268.38;;;19.22;58.67
34566;BME280;20803;42.676;26.348;2024-02-26T12:34:31;98265.69;;;19.28;59.00
34566;BME280;20803;42.676;26.348;2024-02-26T12:36:57;98271.41;;;19.33;58.59
34566;BME280;20803;42.676;26.348;2024-02-26T12:39:23;98273.25;;;19.22;59.39
34566;BME280;20803;42.676;26.348;2024-02-26T12:41:48;98281.94;;;19.09;60.44
34566;BME280;20803;42.676;26.348;2024-02-26T12:44:17;98273.03;;;19.11;60.86
34566;BME280;20803;42.676;26.348;2024-02-26T12:46:43;98269.41;;;19.10;61.17